sensor_id;sensor_type;location;lat;lon;timestamp;temperature;humidity
4002;DHT22;2015;48.670;9.060;2023-03-11T00:01:22;2.30;99.90
4002;DHT22;2015;48.670;9.060;2023-03-11T00:03:54;2.30;99.90
4002;DHT22;2015;48.670;9.060;2023-03-11T00:06:26;2.20;99.90
4002;DHT22;2015;48.670;9.060;2023-03-11T00:08:57;2.20;99.90
4002;DHT22;2015;48.670;9.060;2023-03-11T00:11:29;2.20;99.90
4002;DHT22;2015;48.670;9.060;2023-03-11T00:14:01;2.20;99.90
4002;DHT22;2015;48.670;9.060;2023-03-11T00:16:32;2.10;99.90
4002;DHT22;2015;48.670;9.060;2023-03-11T00:19:04;2.10;99.90
4002;DHT22;2015;48.670;9.060;2023-03-11T00:21:36;2.20;99.90
4002;DHT22;2015;48.670;9.060;2023-03-11T00:24:08;2.20;99.90
4002;DHT22;2015;48.670;9.060;2023-03-11T00:26:40;2.10;99.90
4002;DHT22;2015;48.670;9.060;2023-03-11T00:29:12;2.10;99.90
4002;DHT22;2015;48.670;9.060;2023-03-11T00:31:43;2.10;99.90
4002;DHT22;2015;48.670;9.060;2023-03-11T00:34:15;2.10;99.90
4002;DHT22;2015;48.670;9.060;2023-03-11T00:36:47;2.10;99.90
4002;DHT22;2015;48.670;9.060;2023-03-11T00:39:19;2.00;99.90
4002;DHT22;2015;48.670;9.060;2023-03-11T00:41:50;2.10;99.90
4002;DHT22;2015;48.670;9.060;2023-03-11T00:44:23;2.10;99.90
4002;DHT22;2015;48.670;9.060;2023-03-11T00:46:54;2.20;99.90
4002;DHT22;2015;48.670;9.060;2023-03-11T00:49:26;2.20;99.90
4002;DHT22;2015;48.670;9.060;2023-03-11T00:51:58;2.20;99.90
4002;DHT22;2015;48.670;9.060;2023-03-11T00:54:30;2.30;99.90
4002;DHT22;2015;48.670;9.060;2023-03-11T00:57:02;2.30;99.90
4002;DHT22;2015;48.670;9.060;2023-03-11T00:59:34;2.30;99.90
4002;DHT22;2015;48.670;9.060;2023-03-11T01:02:06;2.40;99.90
4002;DHT22;2015;48.670;9.060;2023-03-11T01:04:38;2.40;99.90
4002;DHT22;2015;48.670;9.060;2023-03-11T01:07:09;2.40;99.90
4002;DHT22;2015;48.670;9.060;2023-03-11T01:09:42;2.40;99.90
4002;DHT22;2015;48.670;9.060;2023-03-11T01:12:13;2.40;99.90
4002;DHT22;2015;48.670;9.060;2023-03-11T01:14:45;2.40;99.90
4002;DHT22;2015;48.670;9.060;2023-03-11T01:17:17;2.40;99.90
4002;DHT22;2015;48.670;9.060;2023-03-11T01:19:49;2.40;99.90
4002;DHT22;2015;48.670;9.060;2023-03-11T01:22:20;2.40;99.90
4002;DHT22;2015;48.670;9.060;2023-03-11T01:24:52;2.40;99.90
4002;DHT22;2015;48.670;9.060;2023-03-11T01:27:24;2.30;99.90
4002;DHT22;2015;48.670;9.060;2023-03-11T01:29:56;2.30;99.90
4002;DHT22;2015;48.670;9.060;2023-03-11T01:32:27;2.20;99.90
4002;DHT22;2015;48.670;9.060;2023-03-11T01:34:59;2.30;99.90
4002;DHT22;2015;48.670;9.060;2023-03-11T01:37:31;2.30;99.90
4002;DHT22;2015;48.670;9.060;2023-03-11T01:40:04;2.20;99.90
4002;DHT22;2015;48.670;9.060;2023-03-11T01:42:36;2.20;99.90
4002;DHT22;2015;48.670;9.060;2023-03-11T01:47:59;2.10;99.90
4002;DHT22;2015;48.670;9.060;2023-03-11T01:50:35;2.00;99.90
4002;DHT22;2015;48.670;9.060;2023-03-11T01:53:09;2.00;99.90
4002;DHT22;2015;48.670;9.060;2023-03-11T01:55:42;2.00;99.90
4002;DHT22;2015;48.670;9.060;2023-03-11T01:58:18;1.90;99.90
4002;DHT22;2015;48.670;9.060;2023-03-11T02:00:51;1.90;99.90
4002;DHT22;2015;48.670;9.060;2023-03-11T02:03:31;1.90;99.90
4002;DHT22;2015;48.670;9.060;2023-03-11T02:06:07;1.90;99.90
4002;DHT22;2015;48.670;9.060;2023-03-11T02:08:40;2.00;99.90
4002;DHT22;2015;48.670;9.060;2023-03-11T02:11:22;1.90;99.90
4002;DHT22;2015;48.670;9.060;2023-03-11T02:14:00;2.00;99.90
4002;DHT22;2015;48.670;9.060;2023-03-11T02:16:32;2.00;99.90
4002;DHT22;2015;48.670;9.060;2023-03-11T02:19:34;2.00;99.90
4002;DHT22;2015;48.670;9.060;2023-03-11T02:22:02;2.00;99.90
4002;DHT22;2015;48.670;9.060;2023-03-11T02:24:56;1.90;99.90
4002;DHT22;2015;48.670;9.060;2023-03-11T02:27:32;1.90;99.90
4002;DHT22;2015;48.670;9.060;2023-03-11T02:30:05;1.90;99.90
4002;DHT22;2015;48.670;9.060;2023-03-11T02:32:37;1.70;99.90
4002;DHT22;2015;48.670;9.060;2023-03-11T02:35:09;1.70;99.90
4002;DHT22;2015;48.670;9.060;2023-03-11T02:37:50;1.60;99.90
4002;DHT22;2015;48.670;9.060;2023-03-11T02:42:57;1.50;99.90
4002;DHT22;2015;48.670;9.060;2023-03-11T02:45:30;1.40;99.90
4002;DHT22;2015;48.670;9.060;2023-03-11T02:48:02;1.30;99.90
4002;DHT22;2015;48.670;9.060;2023-03-11T02:50:35;1.30;99.90
4002;DHT22;2015;48.670;9.060;2023-03-11T02:53:08;1.30;99.90
4002;DHT22;2015;48.670;9.060;2023-03-11T02:55:40;1.20;99.90
4002;DHT22;2015;48.670;9.060;2023-03-11T02:58:12;1.20;99.90
4002;DHT22;2015;48.670;9.060;2023-03-11T03:00:43;1.20;99.90
4002;DHT22;2015;48.670;9.060;2023-03-11T03:03:15;1.10;99.90
4002;DHT22;2015;48.670;9.060;2023-03-11T03:05:47;1.10;99.90
4002;DHT22;2015;48.670;9.060;2023-03-11T03:08:19;1.10;99.90
4002;DHT22;2015;48.670;9.060;2023-03-11T03:10:51;1.10;99.90
4002;DHT22;2015;48.670;9.060;2023-03-11T03:13:24;1.10;99.90
4002;DHT22;2015;48.670;9.060;2023-03-11T03:15:56;1.00;99.90
4002;DHT22;2015;48.670;9.060;2023-03-11T03:18:28;1.00;99.90
4002;DHT22;2015;48.670;9.060;2023-03-11T03:21:00;0.90;99.90
4002;DHT22;2015;48.670;9.060;2023-03-11T03:23:32;0.90;99.90
4002;DHT22;2015;48.670;9.060;2023-03-11T03:26:06;0.90;99.90
4002;DHT22;2015;48.670;9.060;2023-03-11T03:28:37;0.90;99.90
4002;DHT22;2015;48.670;9.060;2023-03-11T03:31:09;0.90;99.90
4002;DHT22;2015;48.670;9.060;2023-03-11T03:33:41;0.90;99.90
4002;DHT22;2015;48.670;9.060;2023-03-11T03:36:14;0.80;99.90
4002;DHT22;2015;48.670;9.060;2023-03-11T03:38:46;0.80;99.90
4002;DHT22;2015;48.670;9.060;2023-03-11T03:41:17;0.80;99.90
4002;DHT22;2015;48.670;9.060;2023-03-11T03:43:49;0.70;99.90
4002;DHT22;2015;48.670;9.060;2023-03-11T03:46:21;0.70;99.90
4002;DHT22;2015;48.670;9.060;2023-03-11T03:48:53;0.60;99.90
4002;DHT22;2015;48.670;9.060;2023-03-11T03:51:25;0.60;99.90
4002;DHT22;2015;48.670;9.060;2023-03-11T03:53:57;0.60;99.90
4002;DHT22;2015;48.670;9.060;2023-03-11T03:56:29;0.60;99.90
4002;DHT22;2015;48.670;9.060;2023-03-11T03:59:00;0.50;99.90
4002;DHT22;2015;48.670;9.060;2023-03-11T04:01:32;0.50;99.90
4002;DHT22;2015;48.670;9.060;2023-03-11T04:04:04;0.50;99.90
4002;DHT22;2015;48.670;9.060;2023-03-11T04:06:36;0.40;99.90
4002;DHT22;2015;48.670;9.060;2023-03-11T04:09:10;0.40;99.90
4002;DHT22;2015;48.670;9.060;2023-03-11T04:11:42;0.30;99.90
4002;DHT22;2015;48.670;9.060;2023-03-11T04:14:14;0.40;99.90
4002;DHT22;2015;48.670;9.060;2023-03-11T04:16:45;0.40;99.90
4002;DHT22;2015;48.670;9.060;2023-03-11T04:19:17;0.40;99.90
4002;DHT22;2015;48.670;9.060;2023-03-11T04:21:49;0.40;99.90
4002;DHT22;2015;48.670;9.060;2023-03-11T04:24:22;0.30;99.90
4002;DHT22;2015;48.670;9.060;2023-03-11T04:26:54;0.30;99.90
4002;DHT22;2015;48.670;9.060;2023-03-11T04:29:26;0.30;99.90
4002;DHT22;2015;48.670;9.060;2023-03-11T04:31:57;0.20;99.90
4002;DHT22;2015;48.670;9.060;2023-03-11T04:34:29;0.20;99.90
4002;DHT22;2015;48.670;9.060;2023-03-11T04:37:01;0.10;99.90
4002;DHT22;2015;48.670;9.060;2023-03-11T04:39:33;0.10;99.90
4002;DHT22;2015;48.670;9.060;2023-03-11T04:42:04;0.20;99.90
4002;DHT22;2015;48.670;9.060;2023-03-11T04:44:36;0.20;99.90
4002;DHT22;2015;48.670;9.060;2023-03-11T04:47:08;0.10;99.90
4002;DHT22;2015;48.670;9.060;2023-03-11T04:49:40;0.10;99.90
4002;DHT22;2015;48.670;9.060;2023-03-11T04:52:12;0.00;99.90
4002;DHT22;2015;48.670;9.060;2023-03-11T04:54:44;0.00;99.90
4002;DHT22;2015;48.670;9.060;2023-03-11T04:57:15;0.00;99.90
4002;DHT22;2015;48.670;9.060;2023-03-11T04:59:47;-0.10;99.90
4002;DHT22;2015;48.670;9.060;2023-03-11T05:02:19;-0.10;99.90
4002;DHT22;2015;48.670;9.060;2023-03-11T05:04:50;-0.20;99.90
4002;DHT22;2015;48.670;9.060;2023-03-11T05:07:22;-0.20;99.90
4002;DHT22;2015;48.670;9.060;2023-03-11T05:09:54;-0.20;99.90
4002;DHT22;2015;48.670;9.060;2023-03-11T05:12:26;-0.20;99.90
4002;DHT22;2015;48.670;9.060;2023-03-11T05:14:58;-0.20;99.90
4002;DHT22;2015;48.670;9.060;2023-03-11T05:17:30;-0.10;99.90
4002;DHT22;2015;48.670;9.060;2023-03-11T05:20:01;-0.10;99.90
4002;DHT22;2015;48.670;9.060;2023-03-11T05:22:37;-0.10;99.90
4002;DHT22;2015;48.670;9.060;2023-03-11T05:25:09;-0.10;99.90
4002;DHT22;2015;48.670;9.060;2023-03-11T05:27:40;0.00;99.90
4002;DHT22;2015;48.670;9.060;2023-03-11T05:30:12;0.00;99.90
4002;DHT22;2015;48.670;9.060;2023-03-11T05:32:45;0.00;99.90
4002;DHT22;2015;48.670;9.060;2023-03-11T05:35:17;-0.10;99.90
4002;DHT22;2015;48.670;9.060;2023-03-11T05:37:49;-0.10;99.90
4002;DHT22;2015;48.670;9.060;2023-03-11T05:40:21;-0.10;99.90
4002;DHT22;2015;48.670;9.060;2023-03-11T05:42:53;-0.10;99.90
4002;DHT22;2015;48.670;9.060;2023-03-11T05:45:25;-0.10;99.90
4002;DHT22;2015;48.670;9.060;2023-03-11T05:47:57;0.00;99.90
4002;DHT22;2015;48.670;9.060;2023-03-11T05:50:28;0.00;99.90
4002;DHT22;2015;48.670;9.060;2023-03-11T05:53:00;-0.10;99.90
4002;DHT22;2015;48.670;9.060;2023-03-11T05:55:32;-0.10;99.90
4002;DHT22;2015;48.670;9.060;2023-03-11T05:58:04;-0.20;99.90
4002;DHT22;2015;48.670;9.060;2023-03-11T06:00:35;-0.20;99.90
4002;DHT22;2015;48.670;9.060;2023-03-11T06:03:07;-0.30;99.90
4002;DHT22;2015;48.670;9.060;2023-03-11T06:05:47;-0.30;99.90
4002;DHT22;2015;48.670;9.060;2023-03-11T06:08:19;-0.40;99.90
4002;DHT22;2015;48.670;9.060;2023-03-11T06:10:51;-0.30;99.90
4002;DHT22;2015;48.670;9.060;2023-03-11T06:13:22;-0.30;99.90
4002;DHT22;2015;48.670;9.060;2023-03-11T06:15:54;-0.30;99.90
4002;DHT22;2015;48.670;9.060;2023-03-11T06:18:26;-0.30;99.90
4002;DHT22;2015;48.670;9.060;2023-03-11T06:20:59;-0.20;99.90
4002;DHT22;2015;48.670;9.060;2023-03-11T06:23:32;-0.20;99.90
4002;DHT22;2015;48.670;9.060;2023-03-11T06:26:04;-0.20;99.90
4002;DHT22;2015;48.670;9.060;2023-03-11T06:28:36;-0.20;99.90
4002;DHT22;2015;48.670;9.060;2023-03-11T06:31:09;-0.10;99.90
4002;DHT22;2015;48.670;9.060;2023-03-11T06:33:42;-0.10;99.90
4002;DHT22;2015;48.670;9.060;2023-03-11T06:36:15;-0.10;99.90
4002;DHT22;2015;48.670;9.060;2023-03-11T06:38:50;0.00;99.90
4002;DHT22;2015;48.670;9.060;2023-03-11T06:41:22;0.00;99.90
4002;DHT22;2015;48.670;9.060;2023-03-11T06:43:56;0.00;99.90
4002;DHT22;2015;48.670;9.060;2023-03-11T06:46:30;0.10;99.90
4002;DHT22;2015;48.670;9.060;2023-03-11T06:49:02;0.10;99.90
4002;DHT22;2015;48.670;9.060;2023-03-11T06:51:33;0.20;99.90
4002;DHT22;2015;48.670;9.060;2023-03-11T06:54:05;0.20;99.90
4002;DHT22;2015;48.670;9.060;2023-03-11T06:56:37;0.30;99.90
4002;DHT22;2015;48.670;9.060;2023-03-11T06:59:10;0.40;99.90
4002;DHT22;2015;48.670;9.060;2023-03-11T07:01:42;0.40;99.90
4002;DHT22;2015;48.670;9.060;2023-03-11T07:04:13;0.50;99.90
4002;DHT22;2015;48.670;9.060;2023-03-11T07:06:45;0.50;99.90
4002;DHT22;2015;48.670;9.060;2023-03-11T07:09:17;0.50;99.90
4002;DHT22;2015;48.670;9.060;2023-03-11T07:11:49;0.50;99.90
4002;DHT22;2015;48.670;9.060;2023-03-11T07:14:21;0.60;99.90
4002;DHT22;2015;48.670;9.060;2023-03-11T07:16:53;0.70;99.90
4002;DHT22;2015;48.670;9.060;2023-03-11T07:19:25;0.80;99.90
4002;DHT22;2015;48.670;9.060;2023-03-11T07:21:57;0.90;99.90
4002;DHT22;2015;48.670;9.060;2023-03-11T07:24:29;1.00;99.90
4002;DHT22;2015;48.670;9.060;2023-03-11T07:27:00;1.00;99.90
4002;DHT22;2015;48.670;9.060;2023-03-11T07:29:32;1.20;99.90
4002;DHT22;2015;48.670;9.060;2023-03-11T07:32:06;1.20;99.90
4002;DHT22;2015;48.670;9.060;2023-03-11T07:34:38;1.00;99.90
4002;DHT22;2015;48.670;9.060;2023-03-11T07:37:09;0.90;99.90
4002;DHT22;2015;48.670;9.060;2023-03-11T07:39:41;0.90;99.90
4002;DHT22;2015;48.670;9.060;2023-03-11T07:42:13;0.90;99.90
4002;DHT22;2015;48.670;9.060;2023-03-11T07:44:45;0.90;99.90
4002;DHT22;2015;48.670;9.060;2023-03-11T07:47:17;1.00;99.90
4002;DHT22;2015;48.670;9.060;2023-03-11T07:49:48;0.90;99.90
4002;DHT22;2015;48.670;9.060;2023-03-11T07:52:20;1.00;99.90
4002;DHT22;2015;48.670;9.060;2023-03-11T07:54:52;1.00;99.90
4002;DHT22;2015;48.670;9.060;2023-03-11T07:57:24;1.10;99.90
4002;DHT22;2015;48.670;9.060;2023-03-11T07:59:56;1.00;99.90
4002;DHT22;2015;48.670;9.060;2023-03-11T08:02:28;1.10;99.90
4002;DHT22;2015;48.670;9.060;2023-03-11T08:05:00;1.10;99.90
4002;DHT22;2015;48.670;9.060;2023-03-11T08:07:32;1.20;99.90
4002;DHT22;2015;48.670;9.060;2023-03-11T08:10:04;1.20;99.90
4002;DHT22;2015;48.670;9.060;2023-03-11T08:12:36;1.30;99.90
4002;DHT22;2015;48.670;9.060;2023-03-11T08:15:08;1.30;99.90
4002;DHT22;2015;48.670;9.060;2023-03-11T08:17:40;1.40;99.90
4002;DHT22;2015;48.670;9.060;2023-03-11T08:20:12;1.40;99.90
4002;DHT22;2015;48.670;9.060;2023-03-11T08:22:44;1.40;99.90
4002;DHT22;2015;48.670;9.060;2023-03-11T08:25:28;1.40;99.90
4002;DHT22;2015;48.670;9.060;2023-03-11T08:28:00;1.40;99.90
4002;DHT22;2015;48.670;9.060;2023-03-11T08:30:32;1.50;99.90
4002;DHT22;2015;48.670;9.060;2023-03-11T08:33:04;1.50;99.90
4002;DHT22;2015;48.670;9.060;2023-03-11T08:35:36;1.60;99.90
4002;DHT22;2015;48.670;9.060;2023-03-11T08:38:08;1.60;99.90
4002;DHT22;2015;48.670;9.060;2023-03-11T08:40:40;1.50;99.90
4002;DHT22;2015;48.670;9.060;2023-03-11T08:43:12;1.60;99.90
4002;DHT22;2015;48.670;9.060;2023-03-11T08:45:44;1.70;99.90
4002;DHT22;2015;48.670;9.060;2023-03-11T08:48:16;1.80;99.90
4002;DHT22;2015;48.670;9.060;2023-03-11T08:50:48;1.90;99.90
4002;DHT22;2015;48.670;9.060;2023-03-11T08:53:25;2.00;99.90
4002;DHT22;2015;48.670;9.060;2023-03-11T08:55:56;2.20;99.90
4002;DHT22;2015;48.670;9.060;2023-03-11T08:58:28;2.20;99.90
4002;DHT22;2015;48.670;9.060;2023-03-11T09:01:00;2.40;99.90
4002;DHT22;2015;48.670;9.060;2023-03-11T09:03:33;2.40;99.90
4002;DHT22;2015;48.670;9.060;2023-03-11T09:06:10;2.60;99.90
4002;DHT22;2015;48.670;9.060;2023-03-11T09:08:43;2.70;99.90
4002;DHT22;2015;48.670;9.060;2023-03-11T09:11:17;2.50;99.90
4002;DHT22;2015;48.670;9.060;2023-03-11T09:13:49;2.50;99.90
4002;DHT22;2015;48.670;9.060;2023-03-11T09:16:22;2.40;99.90
4002;DHT22;2015;48.670;9.060;2023-03-11T09:18:54;2.50;99.90
4002;DHT22;2015;48.670;9.060;2023-03-11T09:21:26;2.70;99.90
4002;DHT22;2015;48.670;9.060;2023-03-11T09:23:57;3.00;99.90
4002;DHT22;2015;48.670;9.060;2023-03-11T09:26:30;3.30;99.90
4002;DHT22;2015;48.670;9.060;2023-03-11T09:29:02;3.60;99.90
4002;DHT22;2015;48.670;9.060;2023-03-11T09:31:34;3.40;99.90
4002;DHT22;2015;48.670;9.060;2023-03-11T09:34:06;3.40;99.90
4002;DHT22;2015;48.670;9.060;2023-03-11T09:36:40;3.40;99.90
4002;DHT22;2015;48.670;9.060;2023-03-11T09:39:12;3.30;99.90
4002;DHT22;2015;48.670;9.060;2023-03-11T09:42:00;3.40;99.90
4002;DHT22;2015;48.670;9.060;2023-03-11T09:44:49;3.50;99.90
4002;DHT22;2015;48.670;9.060;2023-03-11T09:47:45;3.50;99.90
4002;DHT22;2015;48.670;9.060;2023-03-11T09:50:41;3.40;99.90
4002;DHT22;2015;48.670;9.060;2023-03-11T09:53:54;3.50;99.90
4002;DHT22;2015;48.670;9.060;2023-03-11T09:56:19;3.40;99.90
4002;DHT22;2015;48.670;9.060;2023-03-11T09:58:59;3.80;99.90
4002;DHT22;2015;48.670;9.060;2023-03-11T10:01:45;5.40;99.90
4002;DHT22;2015;48.670;9.060;2023-03-11T10:04:22;7.40;99.90
4002;DHT22;2015;48.670;9.060;2023-03-11T10:06:59;8.80;99.90
4002;DHT22;2015;48.670;9.060;2023-03-11T10:09:42;10.70;97.80
4002;DHT22;2015;48.670;9.060;2023-03-11T10:15:46;12.40;91.60
4002;DHT22;2015;48.670;9.060;2023-03-11T10:21:37;12.40;89.80
4002;DHT22;2015;48.670;9.060;2023-03-11T10:24:41;12.30;
4002;DHT22;2015;48.670;9.060;2023-03-11T10:27:27;11.20;87.30
4002;DHT22;2015;48.670;9.060;2023-03-11T10:33:00;9.50;93.10
4002;DHT22;2015;48.670;9.060;2023-03-11T10:35:38;9.40;90.90
4002;DHT22;2015;48.670;9.060;2023-03-11T10:40:54;10.20;91.60
4002;DHT22;2015;48.670;9.060;2023-03-11T10:43:39;11.60;90.60
4002;DHT22;2015;48.670;9.060;2023-03-11T10:46:19;13.20;84.20
4002;DHT22;2015;48.670;9.060;2023-03-11T10:48:51;12.70;88.80
4002;DHT22;2015;48.670;9.060;2023-03-11T10:51:34;13.50;84.70
4002;DHT22;2015;48.670;9.060;2023-03-11T10:54:05;14.50;81.90
4002;DHT22;2015;48.670;9.060;2023-03-11T10:56:39;15.10;79.40
4002;DHT22;2015;48.670;9.060;2023-03-11T11:02:17;16.30;74.50
4002;DHT22;2015;48.670;9.060;2023-03-11T11:07:50;16.00;71.40
4002;DHT22;2015;48.670;9.060;2023-03-11T11:10:27;15.70;71.80
4002;DHT22;2015;48.670;9.060;2023-03-11T11:18:43;9.20;83.00
4002;DHT22;2015;48.670;9.060;2023-03-11T11:21:38;8.40;87.10
4002;DHT22;2015;48.670;9.060;2023-03-11T11:24:26;8.50;85.00
4002;DHT22;2015;48.670;9.060;2023-03-11T11:27:05;8.20;89.30
4002;DHT22;2015;48.670;9.060;2023-03-11T11:29:43;8.20;84.60
4002;DHT22;2015;48.670;9.060;2023-03-11T11:32:18;7.30;85.80
4002;DHT22;2015;48.670;9.060;2023-03-11T11:34:58;7.20;88.70
4002;DHT22;2015;48.670;9.060;2023-03-11T11:37:39;7.00;86.80
4002;DHT22;2015;48.670;9.060;2023-03-11T11:43:04;6.10;92.30
4002;DHT22;2015;48.670;9.060;2023-03-11T11:45:38;5.80;93.40
4002;DHT22;2015;48.670;9.060;2023-03-11T11:48:21;5.80;94.20
4002;DHT22;2015;48.670;9.060;2023-03-11T11:50:59;5.70;94.60
4002;DHT22;2015;48.670;9.060;2023-03-11T11:53:38;5.40;95.40
4002;DHT22;2015;48.670;9.060;2023-03-11T11:56:11;5.40;93.60
4002;DHT22;2015;48.670;9.060;2023-03-11T11:58:44;5.20;94.70
4002;DHT22;2015;48.670;9.060;2023-03-11T12:01:24;5.20;95.10
4002;DHT22;2015;48.670;9.060;2023-03-11T12:09:32;5.30;92.50
4002;DHT22;2015;48.670;9.060;2023-03-11T12:12:39;5.60;94.60
4002;DHT22;2015;48.670;9.060;2023-03-11T12:17:59;5.80;93.70
4002;DHT22;2015;48.670;9.060;2023-03-11T12:20:40;5.90;95.20
4002;DHT22;2015;48.670;9.060;2023-03-11T12:26:17;6.00;93.00
4002;DHT22;2015;48.670;9.060;2023-03-11T12:31:54;6.00;92.10
4002;DHT22;2015;48.670;9.060;2023-03-11T12:34:27;5.90;94.20
4002;DHT22;2015;48.670;9.060;2023-03-11T12:37:00;5.50;95.10
4002;DHT22;2015;48.670;9.060;2023-03-11T12:39:35;5.40;94.10
4002;DHT22;2015;48.670;9.060;2023-03-11T12:44:42;5.60;96.70
4002;DHT22;2015;48.670;9.060;2023-03-11T12:47:23;5.90;96.70
4002;DHT22;2015;48.670;9.060;2023-03-11T12:50:36;6.20;96.20
4002;DHT22;2015;48.670;9.060;2023-03-11T12:52:52;6.50;96.00
4002;DHT22;2015;48.670;9.060;2023-03-11T12:55:29;6.60;95.80
4002;DHT22;2015;48.670;9.060;2023-03-11T12:58:31;6.50;93.70
4002;DHT22;2015;48.670;9.060;2023-03-11T13:04:38;6.20;94.00
4002;DHT22;2015;48.670;9.060;2023-03-11T13:07:28;6.20;95.50
4002;DHT22;2015;48.670;9.060;2023-03-11T13:10:33;6.50;95.90
4002;DHT22;2015;48.670;9.060;2023-03-11T13:12:55;6.60;95.20
4002;DHT22;2015;48.670;9.060;2023-03-11T13:15:33;6.70;96.10
4002;DHT22;2015;48.670;9.060;2023-03-11T13:21:01;6.90;95.20
4002;DHT22;2015;48.670;9.060;2023-03-11T13:23:37;6.80;94.20
4002;DHT22;2015;48.670;9.060;2023-03-11T13:26:29;6.70;94.40
4002;DHT22;2015;48.670;9.060;2023-03-11T13:38:16;7.30;95.20
4002;DHT22;2015;48.670;9.060;2023-03-11T13:40:51;7.30;93.80
4002;DHT22;2015;48.670;9.060;2023-03-11T13:43:24;7.10;94.20
4002;DHT22;2015;48.670;9.060;2023-03-11T13:46:03;7.10;94.30
4002;DHT22;2015;48.670;9.060;2023-03-11T13:48:43;7.10;93.50
4002;DHT22;2015;48.670;9.060;2023-03-11T13:54:03;6.70;93.70
4002;DHT22;2015;48.670;9.060;2023-03-11T13:56:43;6.40;94.80
4002;DHT22;2015;48.670;9.060;2023-03-11T13:59:29;6.00;95.40
4002;DHT22;2015;48.670;9.060;2023-03-11T14:02:28;6.00;95.90
4002;DHT22;2015;48.670;9.060;2023-03-11T14:05:06;6.20;97.70
4002;DHT22;2015;48.670;9.060;2023-03-11T14:07:44;6.30;96.60
4002;DHT22;2015;48.670;9.060;2023-03-11T14:13:04;6.10;97.40
4002;DHT22;2015;48.670;9.060;2023-03-11T14:15:42;6.10;96.90
4002;DHT22;2015;48.670;9.060;2023-03-11T14:21:21;5.80;96.30
4002;DHT22;2015;48.670;9.060;2023-03-11T14:23:54;5.90;96.60
4002;DHT22;2015;48.670;9.060;2023-03-11T14:26:31;5.90;96.90
4002;DHT22;2015;48.670;9.060;2023-03-11T14:29:15;5.90;97.00
4002;DHT22;2015;48.670;9.060;2023-03-11T14:31:48;5.80;96.10
4002;DHT22;2015;48.670;9.060;2023-03-11T14:34:21;5.70;96.20
4002;DHT22;2015;48.670;9.060;2023-03-11T14:36:56;5.70;97.50
4002;DHT22;2015;48.670;9.060;2023-03-11T14:39:36;5.70;97.10
4002;DHT22;2015;48.670;9.060;2023-03-11T14:42:26;5.80;96.70
4002;DHT22;2015;48.670;9.060;2023-03-11T14:45:05;6.00;97.80
4002;DHT22;2015;48.670;9.060;2023-03-11T14:47:39;6.00;96.90
4002;DHT22;2015;48.670;9.060;2023-03-11T14:50:23;5.90;97.00
4002;DHT22;2015;48.670;9.060;2023-03-11T14:53:07;5.90;96.90
4002;DHT22;2015;48.670;9.060;2023-03-11T14:56:01;6.00;96.40
4002;DHT22;2015;48.670;9.060;2023-03-11T14:58:38;6.00;96.00
4002;DHT22;2015;48.670;9.060;2023-03-11T15:01:18;6.00;96.80
4002;DHT22;2015;48.670;9.060;2023-03-11T15:06:58;6.10;96.60
4002;DHT22;2015;48.670;9.060;2023-03-11T15:09:30;6.10;95.80
4002;DHT22;2015;48.670;9.060;2023-03-11T15:12:03;6.30;96.10
4002;DHT22;2015;48.670;9.060;2023-03-11T15:14:48;6.40;96.50
4002;DHT22;2015;48.670;9.060;2023-03-11T15:20:23;6.60;97.50
4002;DHT22;2015;48.670;9.060;2023-03-11T15:22:58;6.60;97.10
4002;DHT22;2015;48.670;9.060;2023-03-11T15:25:36;6.50;96.80
4002;DHT22;2015;48.670;9.060;2023-03-11T15:28:27;6.40;95.80
4002;DHT22;2015;48.670;9.060;2023-03-11T15:33:52;6.30;96.70
4002;DHT22;2015;48.670;9.060;2023-03-11T15:36:28;6.30;95.40
4002;DHT22;2015;48.670;9.060;2023-03-11T15:39:21;6.20;98.00
4002;DHT22;2015;48.670;9.060;2023-03-11T15:42:18;6.20;95.50
4002;DHT22;2015;48.670;9.060;2023-03-11T15:45:15;6.20;96.90
4002;DHT22;2015;48.670;9.060;2023-03-11T15:47:48;6.00;98.20
4002;DHT22;2015;48.670;9.060;2023-03-11T15:50:25;5.90;99.10
4002;DHT22;2015;48.670;9.060;2023-03-11T15:53:13;5.80;99.90
4002;DHT22;2015;48.670;9.060;2023-03-11T15:55:46;5.70;99.90
4002;DHT22;2015;48.670;9.060;2023-03-11T15:58:19;5.70;99.90
4002;DHT22;2015;48.670;9.060;2023-03-11T16:00:53;5.70;99.90
4002;DHT22;2015;48.670;9.060;2023-03-11T16:03:26;5.70;99.90
4002;DHT22;2015;48.670;9.060;2023-03-11T16:06:01;5.60;99.90
4002;DHT22;2015;48.670;9.060;2023-03-11T16:08:33;5.50;99.90
4002;DHT22;2015;48.670;9.060;2023-03-11T16:11:05;5.20;99.90
4002;DHT22;2015;48.670;9.060;2023-03-11T16:13:37;5.20;99.90
4002;DHT22;2015;48.670;9.060;2023-03-11T16:16:15;5.20;99.90
4002;DHT22;2015;48.670;9.060;2023-03-11T16:18:47;5.10;99.90
4002;DHT22;2015;48.670;9.060;2023-03-11T16:21:21;5.00;99.90
4002;DHT22;2015;48.670;9.060;2023-03-11T16:23:54;4.90;99.90
4002;DHT22;2015;48.670;9.060;2023-03-11T16:26:25;4.90;99.90
4002;DHT22;2015;48.670;9.060;2023-03-11T16:28:57;4.80;99.90
4002;DHT22;2015;48.670;9.060;2023-03-11T16:31:43;4.80;99.90
4002;DHT22;2015;48.670;9.060;2023-03-11T16:34:15;4.80;99.90
4002;DHT22;2015;48.670;9.060;2023-03-11T16:36:46;4.70;99.90
4002;DHT22;2015;48.670;9.060;2023-03-11T16:39:18;4.80;99.90
4002;DHT22;2015;48.670;9.060;2023-03-11T16:41:50;4.80;99.90
4002;DHT22;2015;48.670;9.060;2023-03-11T16:44:21;4.70;99.90
4002;DHT22;2015;48.670;9.060;2023-03-11T16:46:53;4.70;99.90
4002;DHT22;2015;48.670;9.060;2023-03-11T16:49:25;4.60;99.90
4002;DHT22;2015;48.670;9.060;2023-03-11T16:51:57;4.60;99.90
4002;DHT22;2015;48.670;9.060;2023-03-11T16:54:29;4.50;99.90
4002;DHT22;2015;48.670;9.060;2023-03-11T16:57:01;4.40;99.90
4002;DHT22;2015;48.670;9.060;2023-03-11T16:59:33;4.40;99.90
4002;DHT22;2015;48.670;9.060;2023-03-11T17:02:05;4.40;99.90
4002;DHT22;2015;48.670;9.060;2023-03-11T17:04:37;4.40;99.90
4002;DHT22;2015;48.670;9.060;2023-03-11T17:07:09;4.30;99.90
4002;DHT22;2015;48.670;9.060;2023-03-11T17:09:41;4.30;99.90
4002;DHT22;2015;48.670;9.060;2023-03-11T17:12:13;4.20;99.90
4002;DHT22;2015;48.670;9.060;2023-03-11T17:14:47;4.10;99.90
4002;DHT22;2015;48.670;9.060;2023-03-11T17:17:19;4.10;99.90
4002;DHT22;2015;48.670;9.060;2023-03-11T17:19:51;4.10;99.90
4002;DHT22;2015;48.670;9.060;2023-03-11T17:22:23;4.00;99.90
4002;DHT22;2015;48.670;9.060;2023-03-11T17:24:55;3.90;99.90
4002;DHT22;2015;48.670;9.060;2023-03-11T17:27:27;3.90;99.90
4002;DHT22;2015;48.670;9.060;2023-03-11T17:30:06;3.80;99.90
4002;DHT22;2015;48.670;9.060;2023-03-11T17:32:37;3.80;99.90
4002;DHT22;2015;48.670;9.060;2023-03-11T17:35:09;3.80;99.90
4002;DHT22;2015;48.670;9.060;2023-03-11T17:37:41;3.70;99.90
4002;DHT22;2015;48.670;9.060;2023-03-11T17:40:13;3.60;99.90
4002;DHT22;2015;48.670;9.060;2023-03-11T17:42:44;3.60;99.90
4002;DHT22;2015;48.670;9.060;2023-03-11T17:45:16;3.50;99.90
4002;DHT22;2015;48.670;9.060;2023-03-11T17:47:48;3.40;99.90
4002;DHT22;2015;48.670;9.060;2023-03-11T17:50:19;3.30;99.90
4002;DHT22;2015;48.670;9.060;2023-03-11T17:52:52;3.30;99.90
4002;DHT22;2015;48.670;9.060;2023-03-11T17:55:24;3.20;99.90
4002;DHT22;2015;48.670;9.060;2023-03-11T17:57:57;3.10;99.90
4002;DHT22;2015;48.670;9.060;2023-03-11T18:00:28;3.00;99.90
4002;DHT22;2015;48.670;9.060;2023-03-11T18:03:00;2.90;99.90
4002;DHT22;2015;48.670;9.060;2023-03-11T18:05:32;2.80;99.90
4002;DHT22;2015;48.670;9.060;2023-03-11T18:08:04;2.70;99.90
4002;DHT22;2015;48.670;9.060;2023-03-11T18:10:36;2.60;99.90
4002;DHT22;2015;48.670;9.060;2023-03-11T18:13:07;2.50;99.90
4002;DHT22;2015;48.670;9.060;2023-03-11T18:15:39;2.50;99.90
4002;DHT22;2015;48.670;9.060;2023-03-11T18:18:11;2.40;99.90
4002;DHT22;2015;48.670;9.060;2023-03-11T18:20:43;2.40;99.90
4002;DHT22;2015;48.670;9.060;2023-03-11T18:23:15;2.30;99.90
4002;DHT22;2015;48.670;9.060;2023-03-11T18:25:50;2.30;99.90
4002;DHT22;2015;48.670;9.060;2023-03-11T18:28:22;2.20;99.90